createdAt,value
2018-04-29T00:01:17.854Z,60.42
2018-04-29T00:03:46.986Z,61.12
2018-04-29T00:06:16.060Z,61.34
2018-04-29T00:08:44.803Z,61.40
2018-04-29T00:11:13.147Z,61.65
2018-04-29T00:13:41.899Z,62.10
2018-04-29T00:16:10.245Z,62.57
2018-04-29T00:18:39.019Z,63.47
2018-04-29T00:21:07.339Z,64.48
2018-04-29T00:23:35.660Z,65.47
2018-04-29T00:26:04.438Z,65.23
2018-04-29T00:28:32.790Z,65.76
2018-04-29T00:31:02.498Z,67.23
2018-04-29T00:33:31.637Z,67.53
2018-04-29T00:35:59.982Z,68.83
2018-04-29T00:38:29.126Z,67.97
2018-04-29T00:40:57.862Z,67.72
2018-04-29T00:43:27.724Z,68.89
2018-04-29T00:45:57.215Z,68.80
2018-04-29T00:48:25.586Z,69.15
2018-04-29T00:50:53.986Z,69.53
2018-04-29T00:53:22.683Z,68.21
2018-04-29T00:55:51.441Z,68.15
2018-04-29T00:58:20.168Z,67.80
2018-04-29T01:00:50.040Z,67.56
2018-04-29T01:03:18.390Z,67.75
2018-04-29T01:05:47.506Z,68.02
2018-04-29T01:08:16.284Z,68.50
2018-04-29T01:10:44.622Z,69.45
2018-04-29T01:13:12.967Z,70.29
2018-04-29T01:15:42.099Z,70.50
2018-04-29T01:18:10.470Z,71.32
2018-04-29T01:20:38.845Z,71.10
2018-04-29T01:23:08.027Z,70.56
2018-04-29T01:25:36.765Z,70.62
2018-04-29T01:28:05.863Z,70.87
2018-04-29T01:30:34.228Z,71.33
2018-04-29T01:33:03.347Z,71.20
2018-04-29T01:35:31.725Z,71.21
2018-04-29T01:38:00.042Z,72.28
2018-04-29T01:40:28.483Z,72.34
2018-04-29T01:42:56.836Z,72.28
2018-04-29T01:45:25.628Z,72.65
2018-04-29T01:47:54.718Z,72.78
2018-04-29T01:50:23.833Z,74.66
2018-04-29T01:52:52.216Z,74.70
2018-04-29T01:55:20.558Z,74.45
2018-04-29T01:57:48.890Z,75.49
2018-04-29T02:00:17.327Z,75.85
2018-04-29T02:02:45.620Z,75.59
2018-04-29T02:05:14.375Z,75.20
2018-04-29T02:07:42.710Z,75.15
2018-04-29T02:10:11.091Z,75.21
2018-04-29T02:12:39.830Z,75.63
2018-04-29T02:15:08.936Z,75.92
2018-04-29T02:17:38.066Z,75.87
2018-04-29T02:20:06.408Z,75.98
2018-04-29T02:22:36.272Z,76.14
2018-04-29T02:25:04.632Z,76.40
2018-04-29T02:27:32.991Z,76.22
2018-04-29T02:30:01.354Z,76.19
2018-04-29T02:32:30.870Z,76.24
2018-04-29T02:34:59.238Z,76.42
2018-04-29T02:37:28.631Z,77.16
2018-04-29T02:39:57.769Z,78.00
2018-04-29T02:42:26.103Z,78.10
2018-04-29T02:44:55.845Z,78.59
2018-04-29T02:47:25.377Z,78.86
2018-04-29T02:49:55.283Z,78.97
2018-04-29T02:52:23.656Z,79.22
2018-04-29T02:54:52.116Z,79.51
2018-04-29T02:57:20.893Z,79.49
2018-04-29T02:59:49.989Z,79.48
2018-04-29T03:02:18.329Z,79.99
2018-04-29T03:04:46.766Z,80.24
2018-04-29T03:07:16.455Z,80.24
2018-04-29T03:09:46.415Z,80.25
2018-04-29T03:12:14.772Z,80.19
2018-04-29T03:14:45.217Z,80.20
2018-04-29T03:17:14.190Z,80.20
2018-04-29T03:19:42.567Z,80.23
2018-04-29T03:22:10.988Z,80.15
2018-04-29T03:24:40.374Z,80.26
2018-04-29T03:27:10.170Z,80.37
2018-04-29T03:29:39.872Z,80.53
2018-04-29T03:32:10.317Z,80.55
2018-04-29T03:34:39.446Z,80.61
2018-04-29T03:37:08.590Z,80.67
2018-04-29T03:39:36.928Z,80.95
2018-04-29T03:42:06.078Z,81.72
2018-04-29T03:44:34.624Z,82.63
2018-04-29T03:47:03.813Z,83.04
2018-04-29T03:49:32.633Z,82.75
2018-04-29T03:52:02.841Z,82.23
2018-04-29T03:54:32.157Z,82.03
2018-04-29T03:57:18.432Z,81.73
2018-04-29T04:00:04.649Z,81.81
2018-04-29T04:02:51.537Z,82.38
2018-04-29T04:05:20.504Z,81.97
2018-04-29T04:07:50.229Z,81.57
2018-04-29T04:10:20.246Z,81.00
2018-04-29T04:12:48.654Z,80.45
2018-04-29T04:15:16.965Z,80.39
2018-04-29T04:17:46.090Z,80.27
2018-04-29T04:20:15.201Z,79.90
2018-04-29T04:22:43.972Z,79.59
2018-04-29T04:25:13.157Z,79.62
2018-04-29T04:27:42.862Z,79.42
2018-04-29T04:30:12.933Z,79.16
2018-04-29T04:32:42.681Z,78.93
2018-04-29T04:35:12.094Z,78.70
2018-04-29T04:37:40.458Z,78.50
2018-04-29T04:40:10.226Z,78.39
2018-04-29T04:42:38.631Z,78.07
2018-04-29T04:45:08.088Z,77.85
2018-04-29T04:47:37.235Z,77.65
2018-04-29T04:50:07.119Z,77.61
2018-04-29T04:52:35.788Z,77.60
2018-04-29T04:55:04.940Z,77.59
2018-04-29T04:57:33.457Z,77.29
2018-04-29T05:00:04.303Z,76.97
2018-04-29T05:02:34.213Z,76.57
2018-04-29T05:05:04.543Z,75.99
2018-04-29T05:07:33.512Z,75.64
2018-04-29T05:10:02.331Z,75.24
2018-04-29T05:12:31.320Z,74.68
2018-04-29T05:15:00.474Z,74.03
2018-04-29T05:17:28.892Z,73.49
2018-04-29T05:19:57.249Z,73.04
2018-04-29T05:22:25.613Z,72.56
2018-04-29T05:24:54.691Z,72.14
2018-04-29T05:27:23.060Z,71.74
2018-04-29T05:29:51.386Z,71.30
2018-04-29T05:32:19.721Z,70.75
2018-04-29T05:34:48.085Z,70.61
2018-04-29T05:37:16.813Z,70.53
2018-04-29T05:39:46.691Z,70.23
2018-04-29T05:42:15.572Z,70.23
2018-04-29T05:44:44.711Z,69.21
2018-04-29T05:47:13.049Z,69.35
2018-04-29T05:49:42.175Z,68.76
2018-04-29T05:52:10.491Z,68.56
2018-04-29T05:54:39.604Z,68.56
2018-04-29T05:57:08.940Z,66.70
2018-04-29T05:59:37.706Z,67.11
2018-04-29T06:02:06.071Z,67.17
2018-04-29T06:04:34.410Z,67.10
2018-04-29T06:07:03.505Z,66.86
2018-04-29T06:09:32.617Z,66.61
2018-04-29T06:12:01.336Z,66.46
2018-04-29T06:14:29.717Z,65.98
2018-04-29T06:16:58.020Z,65.32
2018-04-29T06:19:27.515Z,65.03
2018-04-29T06:21:56.652Z,64.44
2018-04-29T06:24:25.813Z,63.31
2018-04-29T06:26:54.534Z,63.10
2018-04-29T06:29:22.884Z,63.23
2018-04-29T06:31:51.994Z,63.12
2018-04-29T06:34:20.299Z,61.73
2018-04-29T06:36:48.809Z,61.87
2018-04-29T06:39:17.999Z,61.97
2018-04-29T06:41:46.453Z,61.98
2018-04-29T06:44:14.786Z,61.70
2018-04-29T06:46:43.365Z,60.32
2018-04-29T06:49:13.017Z,58.73
2018-04-29T06:51:42.106Z,56.93
2018-04-29T06:54:11.279Z,56.99
2018-04-29T06:56:39.669Z,55.68
2018-04-29T06:59:09.829Z,53.92
2018-04-29T07:01:38.597Z,53.55
2018-04-29T07:04:06.938Z,53.60
2018-04-29T07:06:37.631Z,53.32
2018-04-29T07:09:07.604Z,53.05
2018-04-29T07:11:37.411Z,53.06
2018-04-29T07:14:05.782Z,52.76
2018-04-29T07:16:34.125Z,52.70
2018-04-29T07:19:02.913Z,52.44
2018-04-29T07:21:31.252Z,52.08
2018-04-29T07:24:00.344Z,52.18
2018-04-29T07:26:29.480Z,52.36
2018-04-29T07:28:57.861Z,51.79
2018-04-29T07:31:26.235Z,51.79
2018-04-29T07:33:55.329Z,51.87
2018-04-29T07:36:23.625Z,51.83
2018-04-29T07:38:51.986Z,51.53
2018-04-29T07:41:20.312Z,49.70
2018-04-29T07:43:49.414Z,49.83
2018-04-29T07:46:17.780Z,49.37
2018-04-29T07:48:47.756Z,48.68
2018-04-29T07:51:16.187Z,47.37
2018-04-29T07:53:45.325Z,47.54
2018-04-29T07:56:14.446Z,46.82
2018-04-29T07:58:42.810Z,47.05
2018-04-29T08:01:11.885Z,47.05
2018-04-29T08:03:41.154Z,47.14
2018-04-29T08:06:10.271Z,46.13
2018-04-29T08:08:38.649Z,45.57
2018-04-29T08:11:07.007Z,44.91
2018-04-29T08:13:36.221Z,44.63
2018-04-29T08:16:04.615Z,44.00
2018-04-29T08:18:32.951Z,41.62
2018-04-29T08:21:02.070Z,41.02
2018-04-29T08:23:30.470Z,41.94
2018-04-29T08:25:58.829Z,40.59
2018-04-29T08:28:27.193Z,41.20
2018-04-29T08:30:56.407Z,42.02
2018-04-29T08:33:24.728Z,41.64
2018-04-29T08:35:53.093Z,41.13
2018-04-29T08:38:21.447Z,41.72
2018-04-29T08:40:49.766Z,42.29
2018-04-29T08:43:18.940Z,39.99
2018-04-29T08:45:47.299Z,40.29
2018-04-29T08:48:15.754Z,40.26
2018-04-29T08:50:44.093Z,40.35
2018-04-29T08:53:12.614Z,41.42
2018-04-29T08:55:41.111Z,41.46
2018-04-29T08:58:09.520Z,42.14
2018-04-29T09:00:37.922Z,41.20
2018-04-29T09:03:06.238Z,41.27
2018-04-29T09:05:34.719Z,40.79
2018-04-29T09:08:03.099Z,41.14
2018-04-29T09:10:33.358Z,40.55
2018-04-29T09:13:03.044Z,40.82
2018-04-29T09:15:32.121Z,40.15
2018-04-29T09:18:01.204Z,39.25
2018-04-29T09:20:30.593Z,39.57
2018-04-29T09:22:58.949Z,38.16
2018-04-29T09:25:27.269Z,37.54
2018-04-29T09:27:55.618Z,37.50
2018-04-29T09:30:23.951Z,37.42
2018-04-29T09:32:52.334Z,36.20
2018-04-29T09:35:20.653Z,36.63
2018-04-29T09:37:49.569Z,36.48
2018-04-29T09:40:17.954Z,35.77
2018-04-29T09:42:46.331Z,34.45
2018-04-29T09:45:15.018Z,35.58
2018-04-29T09:47:43.337Z,34.68
2018-04-29T09:50:11.682Z,35.04
2018-04-29T09:52:40.152Z,34.74
2018-04-29T09:55:08.552Z,34.02
2018-04-29T09:57:38.192Z,34.30
2018-04-29T10:00:06.575Z,34.99
2018-04-29T10:02:35.246Z,34.94
2018-04-29T10:05:03.593Z,34.31
2018-04-29T10:07:31.930Z,34.56
2018-04-29T10:10:01.081Z,34.40
2018-04-29T10:12:29.462Z,34.73
2018-04-29T10:14:57.827Z,34.07
2018-04-29T10:17:26.226Z,33.43
2018-04-29T10:19:54.579Z,33.17
2018-04-29T10:22:22.946Z,33.17
2018-04-29T10:24:51.282Z,32.55
2018-04-29T10:27:19.658Z,32.89
2018-04-29T10:29:47.985Z,33.16
2018-04-29T10:32:17.225Z,32.07
2018-04-29T10:34:45.599Z,32.53
2018-04-29T10:37:13.940Z,33.78
2018-04-29T10:39:42.266Z,34.09
2018-04-29T10:42:10.632Z,34.72
2018-04-29T10:44:38.952Z,34.17
2018-04-29T10:47:07.329Z,34.53
2018-04-29T10:49:35.665Z,34.48
2018-04-29T10:52:04.138Z,35.06
2018-04-29T10:54:32.742Z,36.02
2018-04-29T10:57:01.068Z,36.03
2018-04-29T10:59:29.458Z,35.99
2018-04-29T11:01:57.861Z,36.18
2018-04-29T11:04:26.226Z,36.57
2018-04-29T11:06:54.586Z,35.74
2018-04-29T11:09:22.924Z,36.42
2018-04-29T11:11:52.197Z,36.26
2018-04-29T11:14:21.551Z,36.47
2018-04-29T11:16:51.658Z,37.04
2018-04-29T11:19:20.638Z,35.83
2018-04-29T11:21:49.792Z,36.32
2018-04-29T11:24:18.153Z,36.17
2018-04-29T11:26:47.036Z,36.17
2018-04-29T11:29:15.996Z,36.38
2018-04-29T11:31:44.388Z,36.34
2018-04-29T11:34:13.705Z,36.16
2018-04-29T11:36:43.263Z,36.09
2018-04-29T11:39:12.468Z,35.50
2018-04-29T11:41:46.112Z,35.29
2018-04-29T11:44:14.585Z,34.57
2018-04-29T11:46:42.907Z,35.18
2018-04-29T11:49:11.230Z,35.60
2018-04-29T11:51:40.742Z,35.09
2018-04-29T11:54:09.186Z,34.58
2018-04-29T11:56:38.337Z,34.20
2018-04-29T11:59:07.495Z,33.19
2018-04-29T12:01:35.955Z,33.42
2018-04-29T12:04:06.831Z,33.07
2018-04-29T12:06:35.387Z,32.69
2018-04-29T12:09:08.618Z,32.22
2018-04-29T12:11:38.193Z,30.73
2018-04-29T12:14:08.509Z,30.90
2018-04-29T12:16:37.628Z,31.17
2018-04-29T12:19:06.557Z,31.37
2018-04-29T12:21:34.890Z,32.08
2018-04-29T12:24:03.291Z,32.77
2018-04-29T12:26:31.656Z,33.52
2018-04-29T12:29:00.045Z,34.15
2018-04-29T12:31:28.402Z,34.68
2018-04-29T12:33:56.768Z,34.94
2018-04-29T12:36:25.888Z,35.96
2018-04-29T12:38:54.593Z,35.60
2018-04-29T12:41:23.058Z,35.98
2018-04-29T12:43:51.426Z,35.97
2018-04-29T12:46:19.757Z,36.42
2018-04-29T12:48:48.512Z,37.28
2018-04-29T12:51:16.840Z,36.85
2018-04-29T12:53:46.402Z,36.86
2018-04-29T12:56:14.775Z,37.12
2018-04-29T12:58:43.093Z,36.46
2018-04-29T13:01:11.425Z,37.08
2018-04-29T13:03:40.880Z,37.60
2018-04-29T13:06:09.974Z,37.36
2018-04-29T13:08:38.368Z,37.42
2018-04-29T13:11:07.509Z,37.79
2018-04-29T13:13:35.847Z,37.31
2018-04-29T13:16:04.208Z,37.39
2018-04-29T13:18:32.550Z,36.89
2018-04-29T13:21:00.888Z,36.95
2018-04-29T13:23:29.417Z,36.75
2018-04-29T13:25:58.601Z,37.08
2018-04-29T13:28:26.914Z,37.30
2018-04-29T13:30:56.038Z,36.97
2018-04-29T13:33:24.348Z,37.29
2018-04-29T13:35:52.700Z,37.85
2018-04-29T13:38:21.017Z,37.10
2018-04-29T13:40:49.362Z,36.61
2018-04-29T13:43:17.798Z,36.76
2018-04-29T13:45:46.941Z,37.03
2018-04-29T13:48:15.290Z,37.00
2018-04-29T13:50:43.698Z,36.77
2018-04-29T13:53:12.034Z,36.61
2018-04-29T13:55:41.166Z,36.83
2018-04-29T13:58:09.516Z,36.91
2018-04-29T14:00:38.641Z,36.73
2018-04-29T14:03:07.020Z,37.00
2018-04-29T14:05:35.393Z,36.79
2018-04-29T14:08:03.726Z,37.02
2018-04-29T14:10:32.862Z,36.32
2018-04-29T14:13:01.306Z,36.73
2018-04-29T14:15:29.563Z,36.92
2018-04-29T14:17:57.941Z,36.89
2018-04-29T14:20:26.277Z,37.08
2018-04-29T14:22:54.613Z,36.99
2018-04-29T14:25:23.697Z,36.81
2018-04-29T14:27:52.070Z,36.84
2018-04-29T14:30:21.314Z,36.91
2018-04-29T14:32:49.665Z,36.89
2018-04-29T14:35:18.003Z,36.53
2018-04-29T14:37:46.363Z,36.57
2018-04-29T14:40:14.698Z,36.87
2018-04-29T14:42:43.942Z,36.97
2018-04-29T14:45:12.320Z,36.31
2018-04-29T14:47:40.663Z,36.60
2018-04-29T14:50:10.513Z,37.05
2018-04-29T14:52:38.891Z,37.25
2018-04-29T14:55:07.220Z,36.69
2018-04-29T14:57:36.332Z,37.81
2018-04-29T15:00:04.676Z,36.64
2018-04-29T15:02:33.049Z,37.18
2018-04-29T15:05:02.343Z,37.11
2018-04-29T15:07:31.116Z,36.92
2018-04-29T15:09:59.448Z,36.79
2018-04-29T15:12:27.855Z,36.61
2018-04-29T15:14:56.212Z,36.97
2018-04-29T15:17:24.530Z,37.06
2018-04-29T15:19:52.874Z,36.73
2018-04-29T15:22:21.263Z,36.34
2018-04-29T15:24:49.668Z,36.58
2018-04-29T15:27:17.986Z,36.43
2018-04-29T15:29:47.097Z,36.41
2018-04-29T15:32:15.446Z,36.21
2018-04-29T15:34:43.785Z,36.57
2018-04-29T15:37:12.138Z,36.25
2018-04-29T15:39:40.449Z,35.70
2018-04-29T15:42:08.790Z,35.53
2018-04-29T15:44:37.169Z,36.10
2018-04-29T15:47:05.559Z,35.66
2018-04-29T15:49:33.874Z,36.20
2018-04-29T15:52:02.225Z,35.95
2018-04-29T15:54:30.595Z,35.82
2018-04-29T15:56:58.935Z,35.77
2018-04-29T15:59:28.043Z,36.12
2018-04-29T16:01:56.409Z,36.79
2018-04-29T16:04:25.499Z,35.94
2018-04-29T16:06:54.606Z,35.98
2018-04-29T16:09:22.919Z,36.02
2018-04-29T16:11:52.043Z,35.89
2018-04-29T16:14:20.393Z,36.09
2018-04-29T16:16:48.785Z,36.24
2018-04-29T16:19:17.144Z,35.97
2018-04-29T16:21:45.499Z,36.11
2018-04-29T16:24:13.838Z,36.25
2018-04-29T16:26:42.220Z,36.37
2018-04-29T16:29:10.538Z,36.33
2018-04-29T16:31:38.885Z,37.20
2018-04-29T16:34:08.002Z,36.96
2018-04-29T16:36:36.324Z,36.52
2018-04-29T16:39:04.681Z,36.25
2018-04-29T16:41:32.994Z,36.53
2018-04-29T16:44:01.329Z,36.82
2018-04-29T16:46:29.687Z,36.17
2018-04-29T16:48:58.057Z,36.28
2018-04-29T16:51:26.418Z,36.24
2018-04-29T16:53:55.573Z,36.31
2018-04-29T16:56:23.914Z,36.80
2018-04-29T16:58:52.267Z,36.80
2018-04-29T17:01:20.673Z,36.80
2018-04-29T17:03:49.765Z,36.77
2018-04-29T17:06:18.117Z,37.08
2018-04-29T17:08:46.441Z,37.04
2018-04-29T17:11:14.757Z,37.41
2018-04-29T17:13:43.117Z,37.73
2018-04-29T17:16:11.445Z,37.78
2018-04-29T17:18:40.533Z,37.66
2018-04-29T17:21:09.704Z,37.90
2018-04-29T17:23:38.127Z,37.79
2018-04-29T17:26:07.025Z,37.79
2018-04-29T17:28:35.651Z,38.00
2018-04-29T17:31:03.968Z,38.41
2018-04-29T17:33:32.327Z,38.40
2018-04-29T17:36:01.422Z,38.77
2018-04-29T17:38:30.541Z,39.03
2018-04-29T17:40:58.867Z,39.52
2018-04-29T17:43:30.982Z,39.80
2018-04-29T17:45:59.323Z,39.86
2018-04-29T17:48:28.163Z,40.13
2018-04-29T17:50:56.727Z,40.57
2018-04-29T17:53:25.255Z,40.90
2018-04-29T17:55:53.610Z,41.53
2018-04-29T17:58:22.226Z,41.70
2018-04-29T18:00:50.578Z,41.90
2018-04-29T18:03:18.959Z,42.34
2018-04-29T18:05:47.299Z,42.70
2018-04-29T18:08:17.293Z,43.19
2018-04-29T18:10:46.520Z,43.32
2018-04-29T18:13:15.625Z,43.81
2018-04-29T18:15:43.971Z,44.15
2018-04-29T18:18:12.305Z,44.32
2018-04-29T18:20:40.660Z,45.13
2018-04-29T18:23:09.017Z,45.66
2018-04-29T18:25:38.125Z,45.63
2018-04-29T18:28:06.454Z,45.83
2018-04-29T18:30:34.834Z,46.34
2018-04-29T18:33:03.178Z,46.78
2018-04-29T18:35:32.247Z,47.11
2018-04-29T18:38:03.051Z,47.06
2018-04-29T18:40:33.823Z,47.48
2018-04-29T18:43:02.734Z,48.41
2018-04-29T18:45:31.076Z,47.96
2018-04-29T18:48:01.138Z,48.37
2018-04-29T18:50:29.937Z,48.01
2018-04-29T18:52:58.323Z,49.06
2018-04-29T18:55:47.684Z,48.96
2018-04-29T18:58:18.878Z,48.48
2018-04-29T19:00:47.650Z,48.65
2018-04-29T19:03:17.391Z,48.75
2018-04-29T19:05:48.378Z,49.43
2018-04-29T19:08:16.798Z,49.92
2018-04-29T19:10:47.517Z,49.67
2018-04-29T19:13:17.245Z,49.76
2018-04-29T19:15:45.874Z,49.49
2018-04-29T19:18:14.218Z,50.00
2018-04-29T19:20:43.007Z,50.50
2018-04-29T19:23:11.456Z,51.05
2018-04-29T19:25:40.564Z,50.87
2018-04-29T19:28:09.715Z,51.13
2018-04-29T19:30:38.084Z,51.24
2018-04-29T19:33:06.440Z,51.34
2018-04-29T19:35:34.850Z,51.84
2018-04-29T19:38:03.216Z,51.96
2018-04-29T19:40:31.558Z,52.17
2018-04-29T19:42:59.938Z,51.66
2018-04-29T19:45:28.656Z,51.83
2018-04-29T19:47:56.998Z,52.47
2018-04-29T19:50:25.384Z,53.10
2018-04-29T19:52:53.718Z,52.52
2018-04-29T19:55:22.138Z,52.73
2018-04-29T19:57:50.511Z,53.02
2018-04-29T20:00:18.840Z,53.24
2018-04-29T20:02:47.279Z,53.66
2018-04-29T20:05:16.571Z,53.51
2018-04-29T20:07:44.943Z,53.44
2018-04-29T20:10:13.298Z,53.23
2018-04-29T20:12:42.278Z,53.15
2018-04-29T20:15:10.697Z,53.51
2018-04-29T20:17:39.086Z,54.04
2018-04-29T20:20:07.436Z,54.20
2018-04-29T20:22:36.539Z,53.92
2018-04-29T20:25:05.653Z,53.88
2018-04-29T20:27:33.960Z,54.43
2018-04-29T20:30:02.498Z,54.99
2018-04-29T20:32:56.191Z,55.32
2018-04-29T20:35:24.532Z,55.63
2018-04-29T20:37:54.109Z,55.19
2018-04-29T20:40:22.433Z,55.20
2018-04-29T20:42:50.815Z,55.85
2018-04-29T20:45:19.165Z,55.69
2018-04-29T20:47:48.282Z,56.02
2018-04-29T20:50:17.404Z,56.46
2018-04-29T20:52:46.141Z,57.02
2018-04-29T20:55:14.573Z,57.40
2018-04-29T20:57:43.710Z,57.67
2018-04-29T21:00:12.020Z,57.99
2018-04-29T21:02:40.388Z,57.64
2018-04-29T21:05:09.504Z,58.32
2018-04-29T21:07:37.878Z,58.63
2018-04-29T21:10:06.294Z,58.98
2018-04-29T21:12:34.687Z,59.30
2018-04-29T21:15:03.105Z,59.52
2018-04-29T21:17:31.507Z,59.14
2018-04-29T21:20:00.605Z,58.73
2018-04-29T21:22:29.039Z,58.80
2018-04-29T21:24:58.181Z,59.23
2018-04-29T21:27:26.555Z,60.29
2018-04-29T21:29:54.887Z,60.47
2018-04-29T21:32:23.249Z,60.22
2018-04-29T21:34:51.556Z,61.01
2018-04-29T21:37:20.679Z,61.20
2018-04-29T21:39:49.009Z,60.64
2018-04-29T21:42:17.330Z,60.52
2018-04-29T21:44:45.707Z,60.43
2018-04-29T21:47:14.090Z,60.54
2018-04-29T21:49:42.403Z,60.35
2018-04-29T21:52:10.751Z,61.29
2018-04-29T21:54:39.126Z,61.46
2018-04-29T21:57:07.478Z,61.36
2018-04-29T21:59:35.832Z,61.67
2018-04-29T22:02:04.195Z,61.77
2018-04-29T22:04:32.541Z,61.94
2018-04-29T22:07:00.876Z,62.81
2018-04-29T22:09:30.012Z,63.00
2018-04-29T22:11:58.341Z,62.89
2018-04-29T22:14:26.701Z,62.82
2018-04-29T22:16:55.014Z,62.81
2018-04-29T22:19:23.361Z,62.99
2018-04-29T22:21:51.668Z,63.05
2018-04-29T22:24:20.797Z,63.16
2018-04-29T22:26:49.167Z,63.21
2018-04-29T22:29:17.545Z,64.24
2018-04-29T22:31:45.873Z,64.03
2018-04-29T22:34:14.213Z,64.34
2018-04-29T22:36:42.566Z,64.57
2018-04-29T22:39:10.936Z,64.96
2018-04-29T22:41:39.277Z,64.87
2018-04-29T22:44:07.657Z,64.92
2018-04-29T22:46:35.985Z,64.97
2018-04-29T22:49:04.325Z,65.78
2018-04-29T22:51:33.453Z,66.09
2018-04-29T22:54:01.825Z,65.78
2018-04-29T22:56:30.577Z,65.99
2018-04-29T22:58:58.961Z,65.93
2018-04-29T23:01:28.079Z,66.07
2018-04-29T23:03:57.242Z,66.34
2018-04-29T23:06:25.551Z,66.63
2018-04-29T23:08:54.695Z,66.32
2018-04-29T23:11:23.080Z,66.79
2018-04-29T23:13:51.432Z,67.33
2018-04-29T23:16:19.789Z,67.29
2018-04-29T23:18:48.168Z,66.68
2018-04-29T23:21:16.488Z,67.30
2018-04-29T23:23:44.828Z,67.59
2018-04-29T23:26:13.589Z,67.40
2018-04-29T23:28:42.760Z,67.56
2018-04-29T23:31:11.079Z,67.67
2018-04-29T23:33:39.400Z,67.73
2018-04-29T23:36:07.760Z,68.01
2018-04-29T23:38:36.080Z,68.32
2018-04-29T23:41:04.413Z,68.79
2018-04-29T23:43:32.784Z,68.62
2018-04-29T23:46:01.143Z,69.21
2018-04-29T23:48:29.532Z,69.31
2018-04-29T23:50:57.862Z,69.26
2018-04-29T23:53:26.208Z,68.76
2018-04-29T23:55:54.560Z,69.28
2018-04-29T23:58:22.902Z,69.68
